createdAt,value
2023-02-12T00:02:18.982Z,25.97
2023-02-12T00:05:06.645Z,30.07
2023-02-12T00:07:54.418Z,32.57
2023-02-12T00:10:43.236Z,25.80
2023-02-12T00:13:31.803Z,29.50
2023-02-12T00:16:20.478Z,30.90
2023-02-12T00:19:07.895Z,28.37
2023-02-12T00:21:55.241Z,29.97
2023-02-12T00:24:42.681Z,31.33
2023-02-12T00:27:32.945Z,33.00
2023-02-12T00:30:20.460Z,37.47
2023-02-12T00:33:07.860Z,27.63
2023-02-12T00:35:58.461Z,33.70
2023-02-12T00:38:45.981Z,26.83
2023-02-12T00:41:33.338Z,26.30
2023-02-12T00:44:20.771Z,27.00
2023-02-12T00:47:08.204Z,29.67
2023-02-12T00:49:55.603Z,22.97
2023-02-12T00:52:42.972Z,26.33
2023-02-12T00:55:33.024Z,24.60
2023-02-12T00:58:20.687Z,24.97
2023-02-12T01:01:08.172Z,23.77
2023-02-12T01:03:55.623Z,24.80
2023-02-12T01:06:43.009Z,31.17
2023-02-12T01:09:30.463Z,23.77
2023-02-12T01:12:17.888Z,27.83
2023-02-12T01:15:05.476Z,20.00
2023-02-12T01:17:53.201Z,20.20
2023-02-12T01:20:40.937Z,18.57
2023-02-12T01:23:28.550Z,20.67
2023-02-12T01:26:16.779Z,22.43
2023-02-12T01:29:05.786Z,17.37
2023-02-12T01:31:53.307Z,20.83
2023-02-12T01:34:40.783Z,19.70
2023-02-12T01:37:28.129Z,15.70
2023-02-12T01:40:16.158Z,15.97
2023-02-12T01:43:04.011Z,15.47
2023-02-12T01:45:53.993Z,17.27
2023-02-12T01:48:46.011Z,16.47
2023-02-12T01:51:33.660Z,16.50
2023-02-12T01:54:22.386Z,15.67
2023-02-12T01:57:10.427Z,16.50
2023-02-12T01:59:58.863Z,13.03
2023-02-12T02:02:49.015Z,12.37
2023-02-12T02:06:08.889Z,11.47
2023-02-12T02:08:57.444Z,9.73
2023-02-12T02:12:03.433Z,12.97
2023-02-12T02:14:52.083Z,6.93
2023-02-12T02:17:44.656Z,8.70
2023-02-12T02:20:35.002Z,7.23
2023-02-12T02:23:39.244Z,6.47
2023-02-12T02:26:36.564Z,7.37
2023-02-12T02:29:31.340Z,8.83
2023-02-12T02:32:25.480Z,7.10
2023-02-12T02:35:31.265Z,7.77
2023-02-12T02:38:21.806Z,7.23
2023-02-12T02:41:15.099Z,7.10
2023-02-12T02:44:05.941Z,9.87
2023-02-12T02:46:54.648Z,7.07
2023-02-12T02:49:46.087Z,8.57
2023-02-12T02:52:40.983Z,7.93
2023-02-12T02:55:30.886Z,8.00
2023-02-12T02:58:21.414Z,7.77
2023-02-12T03:01:14.243Z,8.73
2023-02-12T03:04:04.255Z,9.37
2023-02-12T03:06:55.665Z,7.23
2023-02-12T03:09:49.908Z,8.47
2023-02-12T03:12:39.462Z,7.57
2023-02-12T03:15:26.752Z,9.00
2023-02-12T03:18:18.422Z,8.00
2023-02-12T03:21:08.757Z,8.63
2023-02-12T03:23:59.140Z,6.90
2023-02-12T03:26:51.769Z,10.00
2023-02-12T03:29:39.289Z,8.87
2023-02-12T03:32:29.686Z,8.27
2023-02-12T03:35:21.245Z,8.07
2023-02-12T03:38:08.665Z,7.00
2023-02-12T03:41:14.872Z,7.67
2023-02-12T03:44:17.913Z,8.73
2023-02-12T03:47:10.783Z,9.37
2023-02-12T03:50:10.466Z,6.90
2023-02-12T03:52:57.893Z,8.20
2023-02-12T03:55:47.868Z,9.07
2023-02-12T03:58:35.966Z,7.40
2023-02-12T04:01:23.322Z,5.60
2023-02-12T04:04:10.894Z,7.97
2023-02-12T04:06:58.642Z,7.23
2023-02-12T04:09:46.056Z,5.87
2023-02-12T04:12:51.604Z,7.63
2023-02-12T04:15:50.609Z,6.17
2023-02-12T04:18:51.652Z,6.23
2023-02-12T04:21:44.856Z,9.63
2023-02-12T04:24:38.634Z,6.53
2023-02-12T04:27:35.051Z,6.73
2023-02-12T04:30:29.497Z,8.77
2023-02-12T04:33:19.965Z,8.37
2023-02-12T04:36:09.230Z,8.13
2023-02-12T04:38:59.951Z,9.83
2023-02-12T04:41:47.318Z,7.03
2023-02-12T04:44:37.935Z,6.00
2023-02-12T04:47:26.726Z,7.13
2023-02-12T04:50:14.289Z,9.20
2023-02-12T04:53:01.700Z,8.23
2023-02-12T04:55:50.671Z,6.23
2023-02-12T04:58:38.089Z,7.57
2023-02-12T05:01:25.661Z,9.33
2023-02-12T05:04:14.853Z,8.73
2023-02-12T05:07:02.206Z,7.67
2023-02-12T05:09:49.561Z,7.10
2023-02-12T05:12:38.032Z,5.47
2023-02-12T05:15:25.515Z,7.37
2023-02-12T05:18:12.840Z,7.83
2023-02-12T05:21:00.893Z,7.23
2023-02-12T05:23:48.267Z,6.27
2023-02-12T05:26:35.641Z,7.57
2023-02-12T05:29:23.006Z,9.17
2023-02-12T05:32:10.488Z,9.17
2023-02-12T05:34:57.874Z,8.97
2023-02-12T05:37:45.242Z,14.07
2023-02-12T05:40:32.666Z,11.33
2023-02-12T05:43:20.065Z,15.07
2023-02-12T05:46:08.026Z,16.37
2023-02-12T05:48:55.485Z,17.10
2023-02-12T05:51:42.899Z,16.63
2023-02-12T05:54:30.293Z,20.53
2023-02-12T05:57:17.731Z,22.20
2023-02-12T06:00:07.665Z,22.77
2023-02-12T06:02:55.067Z,29.63
2023-02-12T06:05:42.468Z,21.57
2023-02-12T06:08:29.825Z,21.90
2023-02-12T06:11:17.751Z,27.20
2023-02-12T06:14:06.088Z,23.40
2023-02-12T06:16:53.488Z,30.93
2023-02-12T06:19:40.844Z,26.90
2023-02-12T06:22:28.600Z,27.93
2023-02-12T06:25:16.024Z,31.17
2023-02-12T06:28:03.476Z,28.07
2023-02-12T06:30:50.895Z,32.47
2023-02-12T06:33:38.343Z,23.83
2023-02-12T06:36:25.906Z,35.20
2023-02-12T06:39:14.028Z,26.40
2023-02-12T06:42:02.357Z,36.80
2023-02-12T06:44:52.578Z,31.40
2023-02-12T06:47:40.356Z,30.77
2023-02-12T06:50:27.752Z,26.83
2023-02-12T06:53:15.101Z,25.87
2023-02-12T06:56:04.202Z,27.13
2023-02-12T06:58:56.025Z,29.17
2023-02-12T07:01:43.403Z,20.33
2023-02-12T07:04:30.739Z,22.90
2023-02-12T07:07:18.113Z,22.73
2023-02-12T07:10:05.560Z,19.33
2023-02-12T07:12:52.978Z,19.87
2023-02-12T07:15:40.502Z,19.33
2023-02-12T07:18:27.893Z,21.23
2023-02-12T07:21:15.672Z,20.90
2023-02-12T07:24:03.066Z,20.90
2023-02-12T07:26:50.451Z,17.93
2023-02-12T07:29:37.922Z,21.57
2023-02-12T07:32:25.367Z,21.77
2023-02-12T07:35:12.789Z,19.80
2023-02-12T07:38:00.216Z,17.43
2023-02-12T07:40:47.557Z,20.00
2023-02-12T07:43:34.964Z,19.17
2023-02-12T07:46:29.769Z,21.40
2023-02-12T07:49:18.470Z,16.90
2023-02-12T07:52:06.220Z,18.73
2023-02-12T07:54:53.729Z,20.17
2023-02-12T07:57:41.087Z,19.47
2023-02-12T08:00:28.513Z,18.87
2023-02-12T08:03:15.913Z,21.77
2023-02-12T08:06:07.435Z,29.23
2023-02-12T08:08:59.482Z,21.03
2023-02-12T08:11:47.040Z,21.00
2023-02-12T08:14:34.524Z,26.03
2023-02-12T08:17:21.905Z,30.17
2023-02-12T08:20:09.545Z,29.20
2023-02-12T08:22:58.118Z,30.63
2023-02-12T08:25:45.515Z,28.03
2023-02-12T08:28:33.007Z,29.43
2023-02-12T08:31:22.272Z,30.50
2023-02-12T08:34:20.694Z,34.63
2023-02-12T08:37:08.117Z,37.73
2023-02-12T08:39:55.480Z,39.23
2023-02-12T08:42:42.860Z,41.53
2023-02-12T08:45:30.339Z,46.27
2023-02-12T08:48:17.869Z,35.03
2023-02-12T08:51:06.706Z,33.53
2023-02-12T08:53:55.362Z,38.30
2023-02-12T08:56:43.028Z,36.87
2023-02-12T08:59:30.671Z,37.07
2023-02-12T09:02:18.230Z,34.13
2023-02-12T09:05:05.801Z,35.50
2023-02-12T09:07:53.812Z,34.30
2023-02-12T09:10:42.103Z,35.40
2023-02-12T09:13:29.475Z,35.33
2023-02-12T09:16:17.275Z,35.53
2023-02-12T09:19:05.103Z,29.50
2023-02-12T09:21:55.869Z,32.10
2023-02-12T09:24:43.742Z,31.33
2023-02-12T09:27:31.483Z,27.00
2023-02-12T09:30:19.008Z,30.13
2023-02-12T09:33:07.390Z,27.47
2023-02-12T09:35:55.261Z,28.67
2023-02-12T09:38:43.269Z,27.47
2023-02-12T09:41:38.925Z,21.63
2023-02-12T09:44:46.657Z,24.90
2023-02-12T09:47:42.086Z,25.40
2023-02-12T09:50:36.256Z,20.47
2023-02-12T09:53:25.689Z,26.83
2023-02-12T09:56:14.389Z,25.87
2023-02-12T09:59:03.088Z,21.27
2023-02-12T10:01:50.556Z,26.33
2023-02-12T10:04:42.204Z,22.00
2023-02-12T10:07:36.126Z,23.00
2023-02-12T10:10:28.953Z,19.20
2023-02-12T10:13:28.053Z,21.17
2023-02-12T10:16:28.321Z,19.77
2023-02-12T10:19:15.720Z,20.27
2023-02-12T10:22:08.497Z,19.93
2023-02-12T10:25:09.604Z,22.97
2023-02-12T10:27:58.298Z,17.93
2023-02-12T10:30:56.862Z,16.13
2023-02-12T10:33:49.131Z,18.73
2023-02-12T10:36:42.757Z,22.63
2023-02-12T10:39:32.510Z,19.83
2023-02-12T10:42:32.930Z,20.17
2023-02-12T10:45:39.986Z,20.27
2023-02-12T10:48:36.035Z,19.10
2023-02-12T10:51:46.902Z,19.63
2023-02-12T10:54:34.222Z,19.00
2023-02-12T10:57:25.942Z,17.57
2023-02-12T11:00:23.967Z,18.93
2023-02-12T11:03:14.768Z,19.30
2023-02-12T11:06:14.393Z,20.27
2023-02-12T11:09:02.039Z,19.50
2023-02-12T11:11:49.635Z,19.80
2023-02-12T11:14:38.119Z,20.93
2023-02-12T11:17:29.607Z,22.07
2023-02-12T11:20:21.693Z,17.23
2023-02-12T11:23:24.365Z,17.97
2023-02-12T11:26:21.265Z,16.23
2023-02-12T11:29:24.363Z,16.93
2023-02-12T11:32:19.045Z,17.77
2023-02-12T11:35:23.768Z,15.03
2023-02-12T11:38:19.248Z,11.10
2023-02-12T11:41:22.388Z,14.77
2023-02-12T11:44:18.112Z,13.27
2023-02-12T11:47:09.201Z,15.50
2023-02-12T11:49:56.653Z,14.57
2023-02-12T11:52:44.216Z,13.13
2023-02-12T11:55:33.903Z,16.20
2023-02-12T11:58:22.667Z,12.43
2023-02-12T12:01:20.169Z,11.40
2023-02-12T12:04:11.760Z,11.57
2023-02-12T12:07:03.313Z,12.10
2023-02-12T12:09:55.827Z,13.40
2023-02-12T12:12:49.141Z,14.57
2023-02-12T12:15:57.747Z,14.40
2023-02-12T12:19:09.886Z,17.40
2023-02-12T12:22:15.365Z,17.97
2023-02-12T12:25:12.430Z,15.73
2023-02-12T12:28:13.333Z,16.07
2023-02-12T12:31:19.675Z,14.87
2023-02-12T12:34:12.523Z,14.37
2023-02-12T12:37:06.125Z,12.83
2023-02-12T12:40:05.264Z,13.93
2023-02-12T12:43:03.394Z,13.87
2023-02-12T12:46:08.146Z,12.20
2023-02-12T12:48:55.834Z,13.00
2023-02-12T12:51:59.393Z,13.17
2023-02-12T12:54:46.733Z,14.83
2023-02-12T12:57:57.067Z,11.53
2023-02-12T13:00:50.381Z,12.57
2023-02-12T13:03:54.073Z,9.90
2023-02-12T13:06:47.636Z,9.50
2023-02-12T13:09:43.717Z,7.97
2023-02-12T13:12:38.680Z,8.43
2023-02-12T13:15:32.659Z,11.60
2023-02-12T13:18:38.965Z,8.53
2023-02-12T13:21:46.425Z,8.13
2023-02-12T13:24:43.068Z,7.37
2023-02-12T13:27:36.332Z,8.63
2023-02-12T13:30:23.903Z,8.33
2023-02-12T13:33:13.241Z,6.60
2023-02-12T13:36:02.734Z,8.20
2023-02-12T13:38:56.972Z,5.70
2023-02-12T13:41:49.111Z,6.50
2023-02-12T13:44:39.300Z,5.43
2023-02-12T13:47:40.149Z,6.23
2023-02-12T13:50:46.256Z,4.27
2023-02-12T13:53:37.043Z,5.50
2023-02-12T13:56:35.131Z,4.50
2023-02-12T13:59:32.108Z,4.30
2023-02-12T14:02:19.554Z,5.87
2023-02-12T14:05:09.978Z,8.27
2023-02-12T14:07:58.926Z,4.53
2023-02-12T14:11:03.705Z,4.60
2023-02-12T14:13:54.094Z,3.63
2023-02-12T14:16:41.867Z,5.97
2023-02-12T14:19:48.151Z,3.97
2023-02-12T14:22:35.457Z,4.03
2023-02-12T14:25:25.618Z,3.03
2023-02-12T14:28:24.283Z,4.00
2023-02-12T14:31:21.158Z,3.40
2023-02-12T14:34:08.618Z,3.87
2023-02-12T14:37:16.406Z,2.93
2023-02-12T14:40:22.768Z,2.83
2023-02-12T14:43:29.167Z,4.47
2023-02-12T14:46:19.729Z,4.83
2023-02-12T14:49:17.588Z,3.23
2023-02-12T14:52:05.073Z,3.70
2023-02-12T14:54:54.856Z,3.97
2023-02-12T14:57:42.719Z,6.30
2023-02-12T15:00:34.380Z,3.47
2023-02-12T15:03:25.208Z,6.13
2023-02-12T15:06:12.540Z,3.13
2023-02-12T15:09:02.733Z,3.87
2023-02-12T15:11:54.931Z,5.43
2023-02-12T15:14:43.877Z,4.37
2023-02-12T15:17:33.225Z,3.50
2023-02-12T15:20:23.800Z,4.53
2023-02-12T15:23:30.186Z,5.73
2023-02-12T15:26:19.421Z,4.37
2023-02-12T15:29:07.332Z,4.83
2023-02-12T15:31:57.230Z,4.00
2023-02-12T15:34:48.521Z,4.10
2023-02-12T15:37:36.464Z,5.40
2023-02-12T15:40:23.915Z,5.57
2023-02-12T15:43:18.619Z,8.73
2023-02-12T15:46:07.633Z,3.33
2023-02-12T15:48:58.315Z,4.67
2023-02-12T15:51:45.742Z,5.20
2023-02-12T15:54:33.335Z,4.30
2023-02-12T15:57:22.881Z,5.70
2023-02-12T16:00:20.005Z,3.83
2023-02-12T16:03:19.491Z,3.77
2023-02-12T16:06:13.632Z,4.27
2023-02-12T16:09:08.944Z,4.13
2023-02-12T16:11:57.951Z,5.90
2023-02-12T16:14:54.122Z,4.40
2023-02-12T16:17:47.183Z,6.87
2023-02-12T16:20:34.876Z,6.13
2023-02-12T16:23:23.697Z,5.97
2023-02-12T16:26:17.544Z,8.70
2023-02-12T16:29:04.897Z,8.20
2023-02-12T16:31:56.381Z,7.83
2023-02-12T16:34:43.782Z,6.73
2023-02-12T16:37:37.320Z,7.90
2023-02-12T16:40:28.023Z,9.43
2023-02-12T16:43:25.409Z,9.20
2023-02-12T16:46:13.517Z,8.70
2023-02-12T16:49:02.457Z,10.60
2023-02-12T16:51:50.706Z,9.33
2023-02-12T16:54:38.157Z,9.03
2023-02-12T16:57:25.510Z,8.50
2023-02-12T17:00:16.194Z,11.35
2023-02-12T17:03:03.746Z,10.07
2023-02-12T17:05:52.358Z,7.90
2023-02-12T17:08:39.744Z,10.40
2023-02-12T17:11:28.099Z,9.03
2023-02-12T17:14:19.803Z,9.13
2023-02-12T17:17:07.316Z,10.10
2023-02-12T17:19:54.742Z,9.70
2023-02-12T17:22:46.010Z,10.87
2023-02-12T17:25:34.530Z,10.47
2023-02-12T17:28:22.916Z,14.97
2023-02-12T17:31:10.460Z,11.13
2023-02-12T17:33:58.097Z,12.40
2023-02-12T17:36:45.486Z,12.90
2023-02-12T17:39:32.945Z,12.67
2023-02-12T17:42:20.392Z,13.17
2023-02-12T17:45:08.026Z,18.90
2023-02-12T17:47:55.548Z,12.93
2023-02-12T17:50:43.168Z,14.57
2023-02-12T17:53:30.625Z,14.83
2023-02-12T17:56:19.800Z,16.40
2023-02-12T17:59:07.259Z,16.63
2023-02-12T18:01:54.661Z,18.03
2023-02-12T18:04:42.149Z,15.63
2023-02-12T18:07:29.495Z,16.27
2023-02-12T18:10:16.934Z,18.73
2023-02-12T18:13:04.391Z,15.70
2023-02-12T18:15:52.348Z,15.83
2023-02-12T18:18:40.907Z,18.70
2023-02-12T18:21:28.398Z,20.87
2023-02-12T18:24:15.751Z,18.33
2023-02-12T18:27:03.282Z,18.43
2023-02-12T18:29:50.745Z,22.90
2023-02-12T18:32:38.170Z,20.23
2023-02-12T18:35:25.596Z,25.37
2023-02-12T18:38:13.015Z,25.17
2023-02-12T18:41:00.480Z,23.97
2023-02-12T18:43:48.096Z,22.30
2023-02-12T18:46:35.439Z,25.10
2023-02-12T18:49:22.891Z,26.43
2023-02-12T18:52:10.231Z,28.60
2023-02-12T18:54:57.586Z,28.80
2023-02-12T18:57:44.917Z,28.90
2023-02-12T19:00:32.306Z,25.63
2023-02-12T19:03:19.745Z,28.57
2023-02-12T19:06:07.360Z,35.30
2023-02-12T19:08:56.068Z,31.07
2023-02-12T19:11:47.574Z,30.47
2023-02-12T19:14:35.466Z,30.73
2023-02-12T19:17:22.971Z,30.40
2023-02-12T19:20:10.824Z,32.00
2023-02-12T19:22:58.258Z,33.50
2023-02-12T19:25:45.659Z,35.17
2023-02-12T19:28:34.311Z,36.97
2023-02-12T19:31:23.595Z,35.40
2023-02-12T19:34:16.924Z,33.90
2023-02-12T19:37:04.321Z,32.50
2023-02-12T19:39:51.701Z,30.63
2023-02-12T19:42:39.117Z,35.57
2023-02-12T19:45:26.460Z,35.23
2023-02-12T19:48:13.785Z,34.07
2023-02-12T19:51:01.701Z,38.27
2023-02-12T19:53:49.338Z,29.80
2023-02-12T19:56:36.786Z,34.23
2023-02-12T19:59:25.133Z,34.30
2023-02-12T20:02:12.858Z,32.53
2023-02-12T20:05:00.298Z,28.43
2023-02-12T20:07:47.687Z,34.47
2023-02-12T20:10:35.118Z,33.10
2023-02-12T20:13:22.937Z,34.67
2023-02-12T20:16:12.042Z,35.73
2023-02-12T20:19:01.809Z,34.57
2023-02-12T20:21:54.247Z,32.20
2023-02-12T20:24:41.766Z,34.17
2023-02-12T20:27:29.209Z,34.20
2023-02-12T20:30:16.661Z,35.77
2023-02-12T20:33:04.124Z,41.28
2023-02-12T20:35:57.316Z,32.37
2023-02-12T20:38:44.959Z,39.95
2023-02-12T20:41:34.678Z,33.40
2023-02-12T20:44:22.369Z,28.83
2023-02-12T20:47:09.781Z,29.07
2023-02-12T20:49:57.151Z,32.47
2023-02-12T20:52:44.867Z,34.30
2023-02-12T20:55:33.577Z,30.37
2023-02-12T20:58:20.929Z,25.73
2023-02-12T21:01:09.438Z,32.63
2023-02-12T21:03:57.036Z,32.53
2023-02-12T21:06:44.998Z,31.67
2023-02-12T21:09:32.340Z,29.47
2023-02-12T21:12:19.796Z,29.30
2023-02-12T21:15:07.275Z,30.90
2023-02-12T21:17:54.845Z,29.47
2023-02-12T21:20:42.249Z,28.17
2023-02-12T21:23:29.636Z,30.47
2023-02-12T21:26:18.243Z,35.70
2023-02-12T21:29:05.661Z,30.77
2023-02-12T21:31:53.105Z,29.37
2023-02-12T21:34:40.573Z,30.87
2023-02-12T21:37:28.190Z,30.93
2023-02-12T21:40:15.668Z,27.90
2023-02-12T21:43:04.559Z,27.57
2023-02-12T21:45:52.585Z,26.97
2023-02-12T21:48:40.126Z,28.20
2023-02-12T21:51:31.741Z,29.57
2023-02-12T21:54:19.686Z,28.83
2023-02-12T21:57:07.168Z,31.50
2023-02-12T21:59:54.625Z,24.13
2023-02-12T22:02:42.080Z,28.23
2023-02-12T22:05:31.932Z,29.50
2023-02-12T22:08:19.302Z,29.63
2023-02-12T22:11:08.011Z,22.40
2023-02-12T22:13:55.486Z,27.13
2023-02-12T22:16:43.209Z,26.43
2023-02-12T22:19:30.668Z,29.63
2023-02-12T22:22:18.040Z,29.13
2023-02-12T22:25:05.556Z,30.03
2023-02-12T22:27:52.880Z,25.63
2023-02-12T22:30:40.297Z,26.07
2023-02-12T22:33:27.722Z,24.13
2023-02-12T22:36:15.100Z,25.37
2023-02-12T22:39:02.633Z,27.97
2023-02-12T22:41:50.058Z,28.73
2023-02-12T22:44:37.411Z,28.67
2023-02-12T22:47:24.843Z,28.00
2023-02-12T22:50:12.239Z,27.43
2023-02-12T22:52:59.583Z,30.07
2023-02-12T22:55:46.954Z,26.83
2023-02-12T22:58:34.776Z,28.23
2023-02-12T23:01:22.420Z,26.53
2023-02-12T23:04:15.421Z,28.10
2023-02-12T23:07:03.238Z,29.33
2023-02-12T23:09:50.711Z,25.40
2023-02-12T23:12:38.134Z,26.70
2023-02-12T23:15:25.508Z,30.20
2023-02-12T23:18:12.863Z,24.03
2023-02-12T23:21:00.953Z,30.37
2023-02-12T23:23:48.475Z,28.63
2023-02-12T23:26:36.542Z,25.63
2023-02-12T23:29:23.951Z,27.87
2023-02-12T23:32:11.274Z,22.67
2023-02-12T23:34:58.611Z,25.83
2023-02-12T23:37:46.011Z,25.10
2023-02-12T23:40:33.617Z,26.67
2023-02-12T23:43:22.162Z,28.97
2023-02-12T23:46:09.749Z,27.97
2023-02-12T23:48:57.215Z,32.20
2023-02-12T23:51:46.303Z,27.27
2023-02-12T23:54:33.676Z,27.30
2023-02-12T23:57:21.082Z,30.97
